sensor_id;sensor_type;location;lat;lon;timestamp;P1;durP1;ratioP1;P2;durP2;ratioP2
19621;SDS011;9958;33.196;-97.114;2023-08-01T00:00:57;6.10;;;3.30;;
19621;SDS011;9958;33.196;-97.114;2023-08-01T00:03:27;5.65;;;3.60;;
19621;SDS011;9958;33.196;-97.114;2023-08-01T00:05:55;7.70;;;3.38;;
19621;SDS011;9958;33.196;-97.114;2023-08-01T00:08:24;8.18;;;3.60;;
19621;SDS011;9958;33.196;-97.114;2023-08-01T00:10:52;8.75;;;4.05;;
19621;SDS011;9958;33.196;-97.114;2023-08-01T00:13:20;6.68;;;3.50;;
19621;SDS011;9958;33.196;-97.114;2023-08-01T00:15:49;6.43;;;3.88;;
19621;SDS011;9958;33.196;-97.114;2023-08-01T00:18:17;9.88;;;4.18;;
19621;SDS011;9958;33.196;-97.114;2023-08-01T00:20:47;6.78;;;3.67;;
19621;SDS011;9958;33.196;-97.114;2023-08-01T00:23:15;8.73;;;4.32;;
19621;SDS011;9958;33.196;-97.114;2023-08-01T00:25:44;7.93;;;3.50;;
19621;SDS011;9958;33.196;-97.114;2023-08-01T00:28:16;6.82;;;3.30;;
19621;SDS011;9958;33.196;-97.114;2023-08-01T00:30:45;9.90;;;3.53;;
19621;SDS011;9958;33.196;-97.114;2023-08-01T00:33:13;6.78;;;3.40;;
19621;SDS011;9958;33.196;-97.114;2023-08-01T00:35:41;6.50;;;3.85;;
19621;SDS011;9958;33.196;-97.114;2023-08-01T00:38:11;4.82;;;3.38;;
19621;SDS011;9958;33.196;-97.114;2023-08-01T00:40:40;9.90;;;3.92;;
19621;SDS011;9958;33.196;-97.114;2023-08-01T00:43:08;7.40;;;4.25;;
19621;SDS011;9958;33.196;-97.114;2023-08-01T00:45:36;7.28;;;3.55;;
19621;SDS011;9958;33.196;-97.114;2023-08-01T00:48:04;5.95;;;3.35;;
19621;SDS011;9958;33.196;-97.114;2023-08-01T00:50:33;7.50;;;4.13;;
19621;SDS011;9958;33.196;-97.114;2023-08-01T00:53:01;8.15;;;3.88;;
19621;SDS011;9958;33.196;-97.114;2023-08-01T00:55:32;5.63;;;3.10;;
19621;SDS011;9958;33.196;-97.114;2023-08-01T00:58:02;6.05;;;3.72;;
19621;SDS011;9958;33.196;-97.114;2023-08-01T01:00:31;7.65;;;3.75;;
19621;SDS011;9958;33.196;-97.114;2023-08-01T01:02:59;8.32;;;3.53;;
19621;SDS011;9958;33.196;-97.114;2023-08-01T01:05:29;7.30;;;3.85;;
19621;SDS011;9958;33.196;-97.114;2023-08-01T01:08:02;5.32;;;3.97;;
19621;SDS011;9958;33.196;-97.114;2023-08-01T01:10:30;8.52;;;4.43;;
19621;SDS011;9958;33.196;-97.114;2023-08-01T01:13:00;6.00;;;3.60;;
19621;SDS011;9958;33.196;-97.114;2023-08-01T01:15:29;7.45;;;3.70;;
19621;SDS011;9958;33.196;-97.114;2023-08-01T01:17:57;7.25;;;4.00;;
19621;SDS011;9958;33.196;-97.114;2023-08-01T01:23:03;6.90;;;4.30;;
19621;SDS011;9958;33.196;-97.114;2023-08-01T01:25:32;6.85;;;3.35;;
19621;SDS011;9958;33.196;-97.114;2023-08-01T01:28:02;9.05;;;4.07;;
19621;SDS011;9958;33.196;-97.114;2023-08-01T01:30:32;8.13;;;3.92;;
19621;SDS011;9958;33.196;-97.114;2023-08-01T01:33:01;6.80;;;3.83;;
19621;SDS011;9958;33.196;-97.114;2023-08-01T01:35:34;7.93;;;3.90;;
19621;SDS011;9958;33.196;-97.114;2023-08-01T01:38:03;6.95;;;3.47;;
19621;SDS011;9958;33.196;-97.114;2023-08-01T01:40:31;5.60;;;3.78;;
19621;SDS011;9958;33.196;-97.114;2023-08-01T01:43:00;4.75;;;3.50;;
19621;SDS011;9958;33.196;-97.114;2023-08-01T01:45:28;5.60;;;3.45;;
19621;SDS011;9958;33.196;-97.114;2023-08-01T01:47:57;8.30;;;3.70;;
19621;SDS011;9958;33.196;-97.114;2023-08-01T01:50:25;8.65;;;3.72;;
19621;SDS011;9958;33.196;-97.114;2023-08-01T01:52:55;5.20;;;3.45;;
19621;SDS011;9958;33.196;-97.114;2023-08-01T01:55:23;6.22;;;4.05;;
19621;SDS011;9958;33.196;-97.114;2023-08-01T01:57:51;5.28;;;3.60;;
19621;SDS011;9958;33.196;-97.114;2023-08-01T02:00:20;8.05;;;3.65;;
19621;SDS011;9958;33.196;-97.114;2023-08-01T02:02:48;8.63;;;3.58;;
19621;SDS011;9958;33.196;-97.114;2023-08-01T02:05:16;9.07;;;4.10;;
19621;SDS011;9958;33.196;-97.114;2023-08-01T02:07:45;6.10;;;3.78;;
19621;SDS011;9958;33.196;-97.114;2023-08-01T02:10:15;6.47;;;3.75;;
19621;SDS011;9958;33.196;-97.114;2023-08-01T02:12:43;5.45;;;3.83;;
19621;SDS011;9958;33.196;-97.114;2023-08-01T02:15:11;7.47;;;4.18;;
19621;SDS011;9958;33.196;-97.114;2023-08-01T02:17:40;5.57;;;4.15;;
19621;SDS011;9958;33.196;-97.114;2023-08-01T02:20:08;8.98;;;4.30;;
19621;SDS011;9958;33.196;-97.114;2023-08-01T02:22:37;7.53;;;3.90;;
19621;SDS011;9958;33.196;-97.114;2023-08-01T02:25:05;13.18;;;4.28;;
19621;SDS011;9958;33.196;-97.114;2023-08-01T02:27:36;9.27;;;4.30;;
19621;SDS011;9958;33.196;-97.114;2023-08-01T02:30:04;7.55;;;4.13;;
19621;SDS011;9958;33.196;-97.114;2023-08-01T02:32:34;6.03;;;3.63;;
19621;SDS011;9958;33.196;-97.114;2023-08-01T02:35:02;6.43;;;3.45;;
19621;SDS011;9958;33.196;-97.114;2023-08-01T02:37:31;8.80;;;3.95;;
19621;SDS011;9958;33.196;-97.114;2023-08-01T02:39:59;7.68;;;4.38;;
19621;SDS011;9958;33.196;-97.114;2023-08-01T02:42:32;5.97;;;4.00;;
19621;SDS011;9958;33.196;-97.114;2023-08-01T02:45:02;10.02;;;4.28;;
19621;SDS011;9958;33.196;-97.114;2023-08-01T02:47:31;9.13;;;4.45;;
19621;SDS011;9958;33.196;-97.114;2023-08-01T02:50:00;8.88;;;5.25;;
19621;SDS011;9958;33.196;-97.114;2023-08-01T02:52:28;6.80;;;5.25;;
19621;SDS011;9958;33.196;-97.114;2023-08-01T02:54:56;10.07;;;5.45;;
19621;SDS011;9958;33.196;-97.114;2023-08-01T02:57:25;9.40;;;5.30;;
19621;SDS011;9958;33.196;-97.114;2023-08-01T02:59:53;11.65;;;6.25;;
19621;SDS011;9958;33.196;-97.114;2023-08-01T03:02:23;12.52;;;7.15;;
19621;SDS011;9958;33.196;-97.114;2023-08-01T03:04:53;11.50;;;6.53;;
19621;SDS011;9958;33.196;-97.114;2023-08-01T03:07:21;12.40;;;5.65;;
19621;SDS011;9958;33.196;-97.114;2023-08-01T03:09:49;10.57;;;6.80;;
19621;SDS011;9958;33.196;-97.114;2023-08-01T03:12:18;8.55;;;6.05;;
19621;SDS011;9958;33.196;-97.114;2023-08-01T03:14:46;11.93;;;6.40;;
19621;SDS011;9958;33.196;-97.114;2023-08-01T03:17:14;10.32;;;6.28;;
19621;SDS011;9958;33.196;-97.114;2023-08-01T03:19:44;9.52;;;7.05;;
19621;SDS011;9958;33.196;-97.114;2023-08-01T03:22:14;10.10;;;6.88;;
19621;SDS011;9958;33.196;-97.114;2023-08-01T03:24:42;10.68;;;7.10;;
19621;SDS011;9958;33.196;-97.114;2023-08-01T03:27:11;12.55;;;7.28;;
19621;SDS011;9958;33.196;-97.114;2023-08-01T03:29:39;10.90;;;7.63;;
19621;SDS011;9958;33.196;-97.114;2023-08-01T03:32:07;9.98;;;6.63;;
19621;SDS011;9958;33.196;-97.114;2023-08-01T03:34:36;9.25;;;6.95;;
19621;SDS011;9958;33.196;-97.114;2023-08-01T03:37:06;11.35;;;7.05;;
19621;SDS011;9958;33.196;-97.114;2023-08-01T03:39:34;12.05;;;7.60;;
19621;SDS011;9958;33.196;-97.114;2023-08-01T03:42:03;8.00;;;6.65;;
19621;SDS011;9958;33.196;-97.114;2023-08-01T03:44:31;12.43;;;7.03;;
19621;SDS011;9958;33.196;-97.114;2023-08-01T03:46:59;12.35;;;7.95;;
19621;SDS011;9958;33.196;-97.114;2023-08-01T03:49:28;9.63;;;7.50;;
19621;SDS011;9958;33.196;-97.114;2023-08-01T03:51:56;9.57;;;7.75;;
19621;SDS011;9958;33.196;-97.114;2023-08-01T03:54:26;14.10;;;7.93;;
19621;SDS011;9958;33.196;-97.114;2023-08-01T03:56:54;14.23;;;7.90;;
19621;SDS011;9958;33.196;-97.114;2023-08-01T03:59:23;10.23;;;7.57;;
19621;SDS011;9958;33.196;-97.114;2023-08-01T04:01:51;10.70;;;7.57;;
19621;SDS011;9958;33.196;-97.114;2023-08-01T04:04:20;12.43;;;7.60;;
19621;SDS011;9958;33.196;-97.114;2023-08-01T04:06:48;9.88;;;6.97;;
19621;SDS011;9958;33.196;-97.114;2023-08-01T04:09:16;11.77;;;7.63;;
19621;SDS011;9958;33.196;-97.114;2023-08-01T04:11:46;12.02;;;7.45;;
19621;SDS011;9958;33.196;-97.114;2023-08-01T04:14:14;8.63;;;7.10;;
19621;SDS011;9958;33.196;-97.114;2023-08-01T04:16:43;11.00;;;7.35;;
19621;SDS011;9958;33.196;-97.114;2023-08-01T04:19:11;11.52;;;7.82;;
19621;SDS011;9958;33.196;-97.114;2023-08-01T04:21:40;10.77;;;7.65;;
19621;SDS011;9958;33.196;-97.114;2023-08-01T04:24:08;9.50;;;7.28;;
19621;SDS011;9958;33.196;-97.114;2023-08-01T04:26:37;12.57;;;7.68;;
19621;SDS011;9958;33.196;-97.114;2023-08-01T04:29:07;8.98;;;7.20;;
19621;SDS011;9958;33.196;-97.114;2023-08-01T04:31:35;9.82;;;7.00;;
19621;SDS011;9958;33.196;-97.114;2023-08-01T04:34:03;10.25;;;7.03;;
19621;SDS011;9958;33.196;-97.114;2023-08-01T04:36:32;10.63;;;6.93;;
19621;SDS011;9958;33.196;-97.114;2023-08-01T04:39:00;11.02;;;6.90;;
19621;SDS011;9958;33.196;-97.114;2023-08-01T04:41:28;11.85;;;6.90;;
19621;SDS011;9958;33.196;-97.114;2023-08-01T04:43:56;9.63;;;7.07;;
19621;SDS011;9958;33.196;-97.114;2023-08-01T04:46:26;7.72;;;6.15;;
19621;SDS011;9958;33.196;-97.114;2023-08-01T04:48:55;9.85;;;6.97;;
19621;SDS011;9958;33.196;-97.114;2023-08-01T04:51:23;8.90;;;6.80;;
19621;SDS011;9958;33.196;-97.114;2023-08-01T04:53:51;11.48;;;6.32;;
19621;SDS011;9958;33.196;-97.114;2023-08-01T04:56:19;9.35;;;6.72;;
19621;SDS011;9958;33.196;-97.114;2023-08-01T04:58:48;12.80;;;6.05;;
19621;SDS011;9958;33.196;-97.114;2023-08-01T05:01:16;9.20;;;6.53;;
19621;SDS011;9958;33.196;-97.114;2023-08-01T05:03:46;7.32;;;5.75;;
19621;SDS011;9958;33.196;-97.114;2023-08-01T05:06:14;9.38;;;6.20;;
19621;SDS011;9958;33.196;-97.114;2023-08-01T05:08:43;8.57;;;6.22;;
19621;SDS011;9958;33.196;-97.114;2023-08-01T05:11:11;10.25;;;6.60;;
19621;SDS011;9958;33.196;-97.114;2023-08-01T05:13:39;8.90;;;6.40;;
19621;SDS011;9958;33.196;-97.114;2023-08-01T05:16:08;11.32;;;6.20;;
19621;SDS011;9958;33.196;-97.114;2023-08-01T05:18:36;10.98;;;6.57;;
19621;SDS011;9958;33.196;-97.114;2023-08-01T05:21:06;8.20;;;6.63;;
19621;SDS011;9958;33.196;-97.114;2023-08-01T05:23:34;9.60;;;6.70;;
19621;SDS011;9958;33.196;-97.114;2023-08-01T05:26:02;12.38;;;6.47;;
19621;SDS011;9958;33.196;-97.114;2023-08-01T05:28:31;13.48;;;6.93;;
19621;SDS011;9958;33.196;-97.114;2023-08-01T05:30:59;9.73;;;6.50;;
19621;SDS011;9958;33.196;-97.114;2023-08-01T05:33:27;9.52;;;6.97;;
19621;SDS011;9958;33.196;-97.114;2023-08-01T05:35:56;10.40;;;6.80;;
19621;SDS011;9958;33.196;-97.114;2023-08-01T05:38:25;13.43;;;6.78;;
19621;SDS011;9958;33.196;-97.114;2023-08-01T05:40:54;9.85;;;7.15;;
19621;SDS011;9958;33.196;-97.114;2023-08-01T05:43:22;9.10;;;6.38;;
19621;SDS011;9958;33.196;-97.114;2023-08-01T05:45:50;9.43;;;6.85;;
19621;SDS011;9958;33.196;-97.114;2023-08-01T05:48:19;8.43;;;6.35;;
19621;SDS011;9958;33.196;-97.114;2023-08-01T05:50:48;9.57;;;6.88;;
19621;SDS011;9958;33.196;-97.114;2023-08-01T05:53:16;10.13;;;6.60;;
19621;SDS011;9958;33.196;-97.114;2023-08-01T05:55:46;7.55;;;6.68;;
19621;SDS011;9958;33.196;-97.114;2023-08-01T05:58:14;11.07;;;6.75;;
19621;SDS011;9958;33.196;-97.114;2023-08-01T06:00:42;9.30;;;6.35;;
19621;SDS011;9958;33.196;-97.114;2023-08-01T06:03:11;9.82;;;7.20;;
19621;SDS011;9958;33.196;-97.114;2023-08-01T06:05:39;15.30;;;6.90;;
19621;SDS011;9958;33.196;-97.114;2023-08-01T06:08:07;9.93;;;6.93;;
19621;SDS011;9958;33.196;-97.114;2023-08-01T06:10:36;10.57;;;6.85;;
19621;SDS011;9958;33.196;-97.114;2023-08-01T06:13:06;7.82;;;6.38;;
19621;SDS011;9958;33.196;-97.114;2023-08-01T06:15:34;8.23;;;6.53;;
19621;SDS011;9958;33.196;-97.114;2023-08-01T06:18:02;9.80;;;7.75;;
19621;SDS011;9958;33.196;-97.114;2023-08-01T06:20:31;9.02;;;7.22;;
19621;SDS011;9958;33.196;-97.114;2023-08-01T06:22:59;12.82;;;7.10;;
19621;SDS011;9958;33.196;-97.114;2023-08-01T06:25:27;8.85;;;6.95;;
19621;SDS011;9958;33.196;-97.114;2023-08-01T06:27:56;12.82;;;7.45;;
19621;SDS011;9958;33.196;-97.114;2023-08-01T06:30:26;8.68;;;6.97;;
19621;SDS011;9958;33.196;-97.114;2023-08-01T06:32:54;10.38;;;6.28;;
19621;SDS011;9958;33.196;-97.114;2023-08-01T06:35:22;9.88;;;7.05;;
19621;SDS011;9958;33.196;-97.114;2023-08-01T06:37:51;9.90;;;7.30;;
19621;SDS011;9958;33.196;-97.114;2023-08-01T06:40:19;9.50;;;7.25;;
19621;SDS011;9958;33.196;-97.114;2023-08-01T06:42:47;8.57;;;6.68;;
19621;SDS011;9958;33.196;-97.114;2023-08-01T06:45:16;12.40;;;7.38;;
19621;SDS011;9958;33.196;-97.114;2023-08-01T06:47:45;16.65;;;7.25;;
19621;SDS011;9958;33.196;-97.114;2023-08-01T06:50:14;11.52;;;7.03;;
19621;SDS011;9958;33.196;-97.114;2023-08-01T06:52:42;11.20;;;7.93;;
19621;SDS011;9958;33.196;-97.114;2023-08-01T06:55:10;9.38;;;7.28;;
19621;SDS011;9958;33.196;-97.114;2023-08-01T06:57:39;11.98;;;7.07;;
19621;SDS011;9958;33.196;-97.114;2023-08-01T07:00:08;11.13;;;7.07;;
19621;SDS011;9958;33.196;-97.114;2023-08-01T07:02:37;10.27;;;6.90;;
19621;SDS011;9958;33.196;-97.114;2023-08-01T07:05:07;8.68;;;6.45;;
19621;SDS011;9958;33.196;-97.114;2023-08-01T07:07:35;11.02;;;6.85;;
19621;SDS011;9958;33.196;-97.114;2023-08-01T07:10:04;9.85;;;7.22;;
19621;SDS011;9958;33.196;-97.114;2023-08-01T07:12:33;9.02;;;6.47;;
19621;SDS011;9958;33.196;-97.114;2023-08-01T07:15:01;8.73;;;6.57;;
19621;SDS011;9958;33.196;-97.114;2023-08-01T07:17:30;11.43;;;7.00;;
19621;SDS011;9958;33.196;-97.114;2023-08-01T07:40:21;8.65;;;6.72;;
19621;SDS011;9958;33.196;-97.114;2023-08-01T07:42:50;9.73;;;6.68;;
19621;SDS011;9958;33.196;-97.114;2023-08-01T07:45:18;12.07;;;7.15;;
19621;SDS011;9958;33.196;-97.114;2023-08-01T07:47:47;8.05;;;6.80;;
19621;SDS011;9958;33.196;-97.114;2023-08-01T07:50:15;13.95;;;7.32;;
19621;SDS011;9958;33.196;-97.114;2023-08-01T07:52:44;9.73;;;6.68;;
19621;SDS011;9958;33.196;-97.114;2023-08-01T07:55:13;10.00;;;6.93;;
19621;SDS011;9958;33.196;-97.114;2023-08-01T07:57:45;12.40;;;7.35;;
19621;SDS011;9958;33.196;-97.114;2023-08-01T08:00:14;11.18;;;7.70;;
19621;SDS011;9958;33.196;-97.114;2023-08-01T08:02:43;11.82;;;7.35;;
19621;SDS011;9958;33.196;-97.114;2023-08-01T08:05:11;14.77;;;7.63;;
19621;SDS011;9958;33.196;-97.114;2023-08-01T08:07:40;10.23;;;7.20;;
19621;SDS011;9958;33.196;-97.114;2023-08-01T08:10:08;11.35;;;8.10;;
19621;SDS011;9958;33.196;-97.114;2023-08-01T08:12:37;10.07;;;6.90;;
19621;SDS011;9958;33.196;-97.114;2023-08-01T08:15:07;12.60;;;7.40;;
19621;SDS011;9958;33.196;-97.114;2023-08-01T08:17:36;8.18;;;7.18;;
19621;SDS011;9958;33.196;-97.114;2023-08-01T08:20:05;10.80;;;7.35;;
19621;SDS011;9958;33.196;-97.114;2023-08-01T08:22:34;10.88;;;6.93;;
19621;SDS011;9958;33.196;-97.114;2023-08-01T08:25:02;11.73;;;7.47;;
19621;SDS011;9958;33.196;-97.114;2023-08-01T08:27:31;9.65;;;6.80;;
19621;SDS011;9958;33.196;-97.114;2023-08-01T08:29:59;9.63;;;6.97;;
19621;SDS011;9958;33.196;-97.114;2023-08-01T08:32:29;10.93;;;7.45;;
19621;SDS011;9958;33.196;-97.114;2023-08-01T08:34:57;11.02;;;7.28;;
19621;SDS011;9958;33.196;-97.114;2023-08-01T08:37:26;12.70;;;7.85;;
19621;SDS011;9958;33.196;-97.114;2023-08-01T08:39:54;12.35;;;7.47;;
19621;SDS011;9958;33.196;-97.114;2023-08-01T08:42:22;9.68;;;7.03;;
19621;SDS011;9958;33.196;-97.114;2023-08-01T08:44:54;11.48;;;8.38;;
19621;SDS011;9958;33.196;-97.114;2023-08-01T08:47:25;11.07;;;7.80;;
19621;SDS011;9958;33.196;-97.114;2023-08-01T08:49:56;11.52;;;7.45;;
19621;SDS011;9958;33.196;-97.114;2023-08-01T08:52:25;10.75;;;7.60;;
19621;SDS011;9958;33.196;-97.114;2023-08-01T08:54:54;13.90;;;7.47;;
19621;SDS011;9958;33.196;-97.114;2023-08-01T08:57:23;7.90;;;6.78;;
19621;SDS011;9958;33.196;-97.114;2023-08-01T08:59:52;11.57;;;7.90;;
19621;SDS011;9958;33.196;-97.114;2023-08-01T09:02:21;14.38;;;7.45;;
19621;SDS011;9958;33.196;-97.114;2023-08-01T09:04:49;12.38;;;7.82;;
19621;SDS011;9958;33.196;-97.114;2023-08-01T09:07:19;9.48;;;7.20;;
19621;SDS011;9958;33.196;-97.114;2023-08-01T09:09:56;10.85;;;7.72;;
19621;SDS011;9958;33.196;-97.114;2023-08-01T09:12:24;7.95;;;7.15;;
19621;SDS011;9958;33.196;-97.114;2023-08-01T09:14:53;9.98;;;7.30;;
19621;SDS011;9958;33.196;-97.114;2023-08-01T09:17:24;10.55;;;7.72;;
19621;SDS011;9958;33.196;-97.114;2023-08-01T09:19:55;9.65;;;7.30;;
19621;SDS011;9958;33.196;-97.114;2023-08-01T09:22:32;12.45;;;7.82;;
19621;SDS011;9958;33.196;-97.114;2023-08-01T09:25:09;8.82;;;6.78;;
19621;SDS011;9958;33.196;-97.114;2023-08-01T09:27:38;10.90;;;7.47;;
19621;SDS011;9958;33.196;-97.114;2023-08-01T09:30:07;9.82;;;7.43;;
19621;SDS011;9958;33.196;-97.114;2023-08-01T09:32:38;11.15;;;7.47;;
19621;SDS011;9958;33.196;-97.114;2023-08-01T09:35:07;8.50;;;7.03;;
19621;SDS011;9958;33.196;-97.114;2023-08-01T09:37:41;8.65;;;7.35;;
19621;SDS011;9958;33.196;-97.114;2023-08-01T09:40:10;10.60;;;7.40;;
19621;SDS011;9958;33.196;-97.114;2023-08-01T09:42:39;11.48;;;7.28;;
19621;SDS011;9958;33.196;-97.114;2023-08-01T09:45:11;10.70;;;8.00;;
19621;SDS011;9958;33.196;-97.114;2023-08-01T09:47:41;9.48;;;7.15;;
19621;SDS011;9958;33.196;-97.114;2023-08-01T09:50:09;14.05;;;7.85;;
19621;SDS011;9958;33.196;-97.114;2023-08-01T09:52:38;10.52;;;7.72;;
19621;SDS011;9958;33.196;-97.114;2023-08-01T09:55:09;11.15;;;7.93;;
19621;SDS011;9958;33.196;-97.114;2023-08-01T09:57:37;14.48;;;8.57;;
19621;SDS011;9958;33.196;-97.114;2023-08-01T10:00:08;13.73;;;8.35;;
19621;SDS011;9958;33.196;-97.114;2023-08-01T10:02:37;10.18;;;7.80;;
19621;SDS011;9958;33.196;-97.114;2023-08-01T10:05:08;12.90;;;8.18;;
19621;SDS011;9958;33.196;-97.114;2023-08-01T10:07:38;9.40;;;7.20;;
19621;SDS011;9958;33.196;-97.114;2023-08-01T10:10:09;13.35;;;8.30;;
19621;SDS011;9958;33.196;-97.114;2023-08-01T10:12:39;13.65;;;8.27;;
19621;SDS011;9958;33.196;-97.114;2023-08-01T10:15:10;16.50;;;8.77;;
19621;SDS011;9958;33.196;-97.114;2023-08-01T10:17:39;11.40;;;7.85;;
19621;SDS011;9958;33.196;-97.114;2023-08-01T10:20:08;9.20;;;8.13;;
19621;SDS011;9958;33.196;-97.114;2023-08-01T10:22:41;11.00;;;8.52;;
19621;SDS011;9958;33.196;-97.114;2023-08-01T10:25:10;9.20;;;7.80;;
19621;SDS011;9958;33.196;-97.114;2023-08-01T10:27:39;12.55;;;7.82;;
19621;SDS011;9958;33.196;-97.114;2023-08-01T10:30:07;13.80;;;7.90;;
19621;SDS011;9958;33.196;-97.114;2023-08-01T10:32:36;13.18;;;7.57;;
19621;SDS011;9958;33.196;-97.114;2023-08-01T10:35:06;11.25;;;8.40;;
19621;SDS011;9958;33.196;-97.114;2023-08-01T10:37:43;9.82;;;7.82;;
19621;SDS011;9958;33.196;-97.114;2023-08-01T10:40:12;10.35;;;7.95;;
19621;SDS011;9958;33.196;-97.114;2023-08-01T10:42:41;12.25;;;8.25;;
19621;SDS011;9958;33.196;-97.114;2023-08-01T10:45:19;11.70;;;8.05;;
19621;SDS011;9958;33.196;-97.114;2023-08-01T10:47:48;12.15;;;7.82;;
19621;SDS011;9958;33.196;-97.114;2023-08-01T10:50:17;11.68;;;8.35;;
19621;SDS011;9958;33.196;-97.114;2023-08-01T10:52:47;13.00;;;8.10;;
19621;SDS011;9958;33.196;-97.114;2023-08-01T10:55:17;10.48;;;7.70;;
19621;SDS011;9958;33.196;-97.114;2023-08-01T10:57:47;11.85;;;8.00;;
19621;SDS011;9958;33.196;-97.114;2023-08-01T11:00:16;10.95;;;7.95;;
19621;SDS011;9958;33.196;-97.114;2023-08-01T11:02:48;10.40;;;8.63;;
19621;SDS011;9958;33.196;-97.114;2023-08-01T11:05:17;10.82;;;8.57;;
19621;SDS011;9958;33.196;-97.114;2023-08-01T11:07:54;10.65;;;8.13;;
19621;SDS011;9958;33.196;-97.114;2023-08-01T11:10:24;9.43;;;7.90;;
19621;SDS011;9958;33.196;-97.114;2023-08-01T11:12:53;11.38;;;8.40;;
19621;SDS011;9958;33.196;-97.114;2023-08-01T11:15:21;11.13;;;9.02;;
19621;SDS011;9958;33.196;-97.114;2023-08-01T11:17:50;10.75;;;7.85;;
19621;SDS011;9958;33.196;-97.114;2023-08-01T11:20:19;11.68;;;8.70;;
19621;SDS011;9958;33.196;-97.114;2023-08-01T11:22:50;15.63;;;8.52;;
19621;SDS011;9958;33.196;-97.114;2023-08-01T11:25:30;11.20;;;8.25;;
19621;SDS011;9958;33.196;-97.114;2023-08-01T11:28:01;10.90;;;8.43;;
19621;SDS011;9958;33.196;-97.114;2023-08-01T11:30:33;9.85;;;7.68;;
19621;SDS011;9958;33.196;-97.114;2023-08-01T11:33:02;11.52;;;8.15;;
19621;SDS011;9958;33.196;-97.114;2023-08-01T11:35:40;10.98;;;8.80;;
19621;SDS011;9958;33.196;-97.114;2023-08-01T11:38:09;11.00;;;8.05;;
19621;SDS011;9958;33.196;-97.114;2023-08-01T11:40:39;12.32;;;7.90;;
19621;SDS011;9958;33.196;-97.114;2023-08-01T11:43:08;10.63;;;8.23;;
19621;SDS011;9958;33.196;-97.114;2023-08-01T11:45:36;11.50;;;8.75;;
19621;SDS011;9958;33.196;-97.114;2023-08-01T11:48:04;12.90;;;8.40;;
19621;SDS011;9958;33.196;-97.114;2023-08-01T11:50:33;13.38;;;8.45;;
19621;SDS011;9958;33.196;-97.114;2023-08-01T11:53:01;11.50;;;8.05;;
19621;SDS011;9958;33.196;-97.114;2023-08-01T11:55:29;10.70;;;8.27;;
19621;SDS011;9958;33.196;-97.114;2023-08-01T11:58:05;11.98;;;8.45;;
19621;SDS011;9958;33.196;-97.114;2023-08-01T12:00:33;11.50;;;7.78;;
19621;SDS011;9958;33.196;-97.114;2023-08-01T12:03:04;12.30;;;7.82;;
19621;SDS011;9958;33.196;-97.114;2023-08-01T12:05:38;10.82;;;8.07;;
19621;SDS011;9958;33.196;-97.114;2023-08-01T12:08:11;12.02;;;9.00;;
19621;SDS011;9958;33.196;-97.114;2023-08-01T12:10:41;13.20;;;8.77;;
19621;SDS011;9958;33.196;-97.114;2023-08-01T12:13:21;13.48;;;9.00;;
19621;SDS011;9958;33.196;-97.114;2023-08-01T12:15:51;9.93;;;8.23;;
19621;SDS011;9958;33.196;-97.114;2023-08-01T12:18:21;11.27;;;8.13;;
19621;SDS011;9958;33.196;-97.114;2023-08-01T12:20:50;10.18;;;8.13;;
19621;SDS011;9958;33.196;-97.114;2023-08-01T12:23:19;16.40;;;8.93;;
19621;SDS011;9958;33.196;-97.114;2023-08-01T12:25:48;11.90;;;8.20;;
19621;SDS011;9958;33.196;-97.114;2023-08-01T12:28:16;11.90;;;8.68;;
19621;SDS011;9958;33.196;-97.114;2023-08-01T12:30:46;12.80;;;8.30;;
19621;SDS011;9958;33.196;-97.114;2023-08-01T12:33:16;10.60;;;8.60;;
19621;SDS011;9958;33.196;-97.114;2023-08-01T12:35:45;11.10;;;8.85;;
19621;SDS011;9958;33.196;-97.114;2023-08-01T12:38:13;10.90;;;8.52;;
19621;SDS011;9958;33.196;-97.114;2023-08-01T12:40:41;9.18;;;8.05;;
19621;SDS011;9958;33.196;-97.114;2023-08-01T12:43:09;10.95;;;8.68;;
19621;SDS011;9958;33.196;-97.114;2023-08-01T12:45:38;11.55;;;8.18;;
19621;SDS011;9958;33.196;-97.114;2023-08-01T12:48:08;14.65;;;8.43;;
19621;SDS011;9958;33.196;-97.114;2023-08-01T12:50:36;16.27;;;8.77;;
19621;SDS011;9958;33.196;-97.114;2023-08-01T12:53:04;12.23;;;8.82;;
19621;SDS011;9958;33.196;-97.114;2023-08-01T12:55:32;10.70;;;8.05;;
19621;SDS011;9958;33.196;-97.114;2023-08-01T12:58:01;11.45;;;8.38;;
19621;SDS011;9958;33.196;-97.114;2023-08-01T13:00:29;14.02;;;8.15;;
19621;SDS011;9958;33.196;-97.114;2023-08-01T13:02:57;12.07;;;8.50;;
19621;SDS011;9958;33.196;-97.114;2023-08-01T13:05:27;11.95;;;8.30;;
19621;SDS011;9958;33.196;-97.114;2023-08-01T13:07:56;14.15;;;7.90;;
19621;SDS011;9958;33.196;-97.114;2023-08-01T13:10:24;10.77;;;7.80;;
19621;SDS011;9958;33.196;-97.114;2023-08-01T13:12:52;13.75;;;7.80;;
19621;SDS011;9958;33.196;-97.114;2023-08-01T13:15:20;12.02;;;7.90;;
19621;SDS011;9958;33.196;-97.114;2023-08-01T13:17:49;11.27;;;8.30;;
19621;SDS011;9958;33.196;-97.114;2023-08-01T13:20:17;13.35;;;8.57;;
19621;SDS011;9958;33.196;-97.114;2023-08-01T13:22:48;11.00;;;8.27;;
19621;SDS011;9958;33.196;-97.114;2023-08-01T13:25:17;12.40;;;8.43;;
19621;SDS011;9958;33.196;-97.114;2023-08-01T13:27:46;9.18;;;8.18;;
19621;SDS011;9958;33.196;-97.114;2023-08-01T13:30:14;9.63;;;8.63;;
19621;SDS011;9958;33.196;-97.114;2023-08-01T13:32:43;14.30;;;8.02;;
19621;SDS011;9958;33.196;-97.114;2023-08-01T13:35:12;15.68;;;8.93;;
19621;SDS011;9958;33.196;-97.114;2023-08-01T13:37:41;11.80;;;8.90;;
19621;SDS011;9958;33.196;-97.114;2023-08-01T13:40:11;11.43;;;7.75;;
19621;SDS011;9958;33.196;-97.114;2023-08-01T13:42:40;11.43;;;7.78;;
19621;SDS011;9958;33.196;-97.114;2023-08-01T13:45:09;9.55;;;7.85;;
19621;SDS011;9958;33.196;-97.114;2023-08-01T13:47:37;12.65;;;8.48;;
19621;SDS011;9958;33.196;-97.114;2023-08-01T13:50:06;12.85;;;8.18;;
19621;SDS011;9958;33.196;-97.114;2023-08-01T13:52:34;10.80;;;8.07;;
19621;SDS011;9958;33.196;-97.114;2023-08-01T13:55:04;11.75;;;8.75;;
19621;SDS011;9958;33.196;-97.114;2023-08-01T13:57:35;13.93;;;8.77;;
19621;SDS011;9958;33.196;-97.114;2023-08-01T14:00:03;12.75;;;8.20;;
19621;SDS011;9958;33.196;-97.114;2023-08-01T14:02:33;10.55;;;8.35;;
19621;SDS011;9958;33.196;-97.114;2023-08-01T14:05:01;12.77;;;7.95;;
19621;SDS011;9958;33.196;-97.114;2023-08-01T14:07:30;12.40;;;8.02;;
19621;SDS011;9958;33.196;-97.114;2023-08-01T14:09:58;11.75;;;8.50;;
19621;SDS011;9958;33.196;-97.114;2023-08-01T14:12:26;13.68;;;8.48;;
19621;SDS011;9958;33.196;-97.114;2023-08-01T14:14:56;9.35;;;8.45;;
19621;SDS011;9958;33.196;-97.114;2023-08-01T14:17:24;9.63;;;8.15;;
19621;SDS011;9958;33.196;-97.114;2023-08-01T14:19:53;9.40;;;7.68;;
19621;SDS011;9958;33.196;-97.114;2023-08-01T14:22:22;13.40;;;8.70;;
19621;SDS011;9958;33.196;-97.114;2023-08-01T14:24:50;11.40;;;7.97;;
19621;SDS011;9958;33.196;-97.114;2023-08-01T14:27:18;11.75;;;8.85;;
19621;SDS011;9958;33.196;-97.114;2023-08-01T14:29:46;14.40;;;8.23;;
19621;SDS011;9958;33.196;-97.114;2023-08-01T14:32:17;12.15;;;7.90;;
19621;SDS011;9958;33.196;-97.114;2023-08-01T14:34:46;11.48;;;8.85;;
19621;SDS011;9958;33.196;-97.114;2023-08-01T14:37:14;10.60;;;7.53;;
19621;SDS011;9958;33.196;-97.114;2023-08-01T14:39:43;15.85;;;8.20;;
19621;SDS011;9958;33.196;-97.114;2023-08-01T14:42:11;10.00;;;7.72;;
19621;SDS011;9958;33.196;-97.114;2023-08-01T14:44:39;12.10;;;7.80;;
19621;SDS011;9958;33.196;-97.114;2023-08-01T14:47:08;11.38;;;8.93;;
19621;SDS011;9958;33.196;-97.114;2023-08-01T14:49:37;12.27;;;8.45;;
19621;SDS011;9958;33.196;-97.114;2023-08-01T14:52:10;10.38;;;7.55;;
19621;SDS011;9958;33.196;-97.114;2023-08-01T14:54:38;11.70;;;8.98;;
19621;SDS011;9958;33.196;-97.114;2023-08-01T14:57:07;9.85;;;8.23;;
19621;SDS011;9958;33.196;-97.114;2023-08-01T14:59:35;10.15;;;8.05;;